sensor_id;sensor_type;location;lat;lon;timestamp;pressure;altitude;pressure_sealevel;temperature;humidity
39793;BME280;26080;42.264;24.536;2022-09-12T00:00:19;98908.97;;;16.97;100.00
39793;BME280;26080;42.264;24.536;2022-09-12T00:02:46;98912.34;;;16.99;100.00
39793;BME280;26080;42.264;24.536;2022-09-12T00:05:12;98922.44;;;17.05;100.00
39793;BME280;26080;42.264;24.536;2022-09-12T00:07:37;98902.59;;;16.99;100.00
39793;BME280;26080;42.264;24.536;2022-09-12T00:10:03;98892.38;;;16.95;100.00
39793;BME280;26080;42.264;24.536;2022-09-12T00:12:29;98897.22;;;17.01;100.00
39793;BME280;26080;42.264;24.536;2022-09-12T00:14:54;98923.03;;;17.08;100.00
39793;BME280;26080;42.264;24.536;2022-09-12T00:17:20;98919.66;;;17.06;100.00
39793;BME280;26080;42.264;24.536;2022-09-12T00:19:45;98921.59;;;17.04;100.00
39793;BME280;26080;42.264;24.536;2022-09-12T00:22:11;98916.56;;;17.01;100.00
39793;BME280;26080;42.264;24.536;2022-09-12T00:24:36;98917.41;;;17.02;100.00
39793;BME280;26080;42.264;24.536;2022-09-12T00:27:01;98903.47;;;17.00;100.00
39793;BME280;26080;42.264;24.536;2022-09-12T00:29:27;98900.44;;;17.04;100.00
39793;BME280;26080;42.264;24.536;2022-09-12T00:31:52;98901.28;;;17.05;100.00
39793;BME280;26080;42.264;24.536;2022-09-12T00:34:18;98900.50;;;17.25;100.00
39793;BME280;26080;42.264;24.536;2022-09-12T00:36:44;98903.16;;;17.25;100.00
39793;BME280;26080;42.264;24.536;2022-09-12T00:39:10;98912.66;;;17.28;100.00
39793;BME280;26080;42.264;24.536;2022-09-12T00:41:39;98918.41;;;17.33;100.00
39793;BME280;26080;42.264;24.536;2022-09-12T00:49:14;98922.81;;;17.55;100.00
39793;BME280;26080;42.264;24.536;2022-09-12T00:51:48;98916.28;;;17.59;100.00
39793;BME280;26080;42.264;24.536;2022-09-12T00:54:18;98918.53;;;17.42;100.00
39793;BME280;26080;42.264;24.536;2022-09-12T00:56:47;98913.34;;;17.41;100.00
39793;BME280;26080;42.264;24.536;2022-09-12T00:59:19;98922.59;;;17.46;100.00
39793;BME280;26080;42.264;24.536;2022-09-12T01:01:47;98923.56;;;17.45;100.00
39793;BME280;26080;42.264;24.536;2022-09-12T01:04:14;98912.75;;;17.26;100.00
39793;BME280;26080;42.264;24.536;2022-09-12T01:06:42;98901.34;;;17.26;100.00
39793;BME280;26080;42.264;24.536;2022-09-12T01:09:11;98902.78;;;17.30;100.00
39793;BME280;26080;42.264;24.536;2022-09-12T01:11:40;98905.31;;;17.31;100.00
39793;BME280;26080;42.264;24.536;2022-09-12T01:14:06;98897.56;;;17.39;100.00
39793;BME280;26080;42.264;24.536;2022-09-12T01:16:34;98892.78;;;17.33;100.00
39793;BME280;26080;42.264;24.536;2022-09-12T01:25:30;98885.88;;;16.99;100.00
39793;BME280;26080;42.264;24.536;2022-09-12T01:28:25;98878.72;;;16.78;100.00
39793;BME280;26080;42.264;24.536;2022-09-12T01:33:51;98879.06;;;16.63;100.00
39793;BME280;26080;42.264;24.536;2022-09-12T01:39:09;98866.31;;;16.34;100.00
39793;BME280;26080;42.264;24.536;2022-09-12T01:41:49;98882.75;;;16.38;100.00
39793;BME280;26080;42.264;24.536;2022-09-12T01:47:08;98887.34;;;16.36;100.00
39793;BME280;26080;42.264;24.536;2022-09-12T01:50:02;98884.19;;;16.30;100.00
39793;BME280;26080;42.264;24.536;2022-09-12T01:52:37;98850.56;;;16.10;100.00
39793;BME280;26080;42.264;24.536;2022-09-12T01:55:35;98874.69;;;16.17;100.00
39793;BME280;26080;42.264;24.536;2022-09-12T01:58:20;98874.44;;;16.09;100.00
39793;BME280;26080;42.264;24.536;2022-09-12T02:01:09;98870.47;;;16.03;100.00
39793;BME280;26080;42.264;24.536;2022-09-12T02:03:42;98870.94;;;15.97;100.00
39793;BME280;26080;42.264;24.536;2022-09-12T02:06:18;98843.31;;;15.79;100.00
39793;BME280;26080;42.264;24.536;2022-09-12T02:08:52;98858.19;;;15.80;100.00
39793;BME280;26080;42.264;24.536;2022-09-12T02:11:18;98867.06;;;15.79;100.00
39793;BME280;26080;42.264;24.536;2022-09-12T02:16:18;98856.00;;;15.50;100.00
39793;BME280;26080;42.264;24.536;2022-09-12T02:18:52;98867.19;;;15.53;100.00
39793;BME280;26080;42.264;24.536;2022-09-12T02:21:21;98864.03;;;15.48;100.00
39793;BME280;26080;42.264;24.536;2022-09-12T02:23:52;98845.19;;;15.41;100.00
39793;BME280;26080;42.264;24.536;2022-09-12T02:26:24;98872.03;;;15.59;100.00
39793;BME280;26080;42.264;24.536;2022-09-12T02:28:53;98840.44;;;15.34;100.00
39793;BME280;26080;42.264;24.536;2022-09-12T02:39:10;98865.63;;;15.27;100.00
39793;BME280;26080;42.264;24.536;2022-09-12T02:41:36;98862.03;;;15.28;100.00
39793;BME280;26080;42.264;24.536;2022-09-12T02:44:02;98861.06;;;15.29;100.00
39793;BME280;26080;42.264;24.536;2022-09-12T02:46:40;98866.13;;;15.32;100.00
39793;BME280;26080;42.264;24.536;2022-09-12T02:49:07;98861.31;;;15.26;100.00
39793;BME280;26080;42.264;24.536;2022-09-12T02:51:32;98866.56;;;15.26;100.00
39793;BME280;26080;42.264;24.536;2022-09-12T02:53:58;98855.63;;;15.19;100.00
39793;BME280;26080;42.264;24.536;2022-09-12T02:56:29;98839.34;;;15.01;100.00
39793;BME280;26080;42.264;24.536;2022-09-12T02:58:58;98864.22;;;15.10;100.00
39793;BME280;26080;42.264;24.536;2022-09-12T03:09:42;98870.41;;;14.85;100.00
39793;BME280;26080;42.264;24.536;2022-09-12T03:13:07;98875.81;;;14.84;100.00
39793;BME280;26080;42.264;24.536;2022-09-12T03:20:49;98862.41;;;14.74;100.00
39793;BME280;26080;42.264;24.536;2022-09-12T03:23:46;98857.19;;;14.61;100.00
39793;BME280;26080;42.264;24.536;2022-09-12T03:28:48;98873.19;;;14.71;100.00
39793;BME280;26080;42.264;24.536;2022-09-12T03:31:17;98875.25;;;14.78;100.00
39793;BME280;26080;42.264;24.536;2022-09-12T03:33:43;98876.09;;;14.79;100.00
39793;BME280;26080;42.264;24.536;2022-09-12T03:36:15;98873.91;;;14.73;100.00
39793;BME280;26080;42.264;24.536;2022-09-12T03:38:41;98869.38;;;14.75;100.00
39793;BME280;26080;42.264;24.536;2022-09-12T03:41:06;98869.38;;;14.75;100.00
39793;BME280;26080;42.264;24.536;2022-09-12T03:43:32;98865.41;;;14.69;100.00
39793;BME280;26080;42.264;24.536;2022-09-12T03:45:57;98880.38;;;14.69;100.00
39793;BME280;26080;42.264;24.536;2022-09-12T03:48:23;98880.91;;;14.61;100.00
39793;BME280;26080;42.264;24.536;2022-09-12T03:50:48;98883.63;;;14.60;100.00
39793;BME280;26080;42.264;24.536;2022-09-12T03:53:14;98886.50;;;14.57;100.00
39793;BME280;26080;42.264;24.536;2022-09-12T03:55:39;98864.56;;;14.43;100.00
39793;BME280;26080;42.264;24.536;2022-09-12T03:58:05;98874.38;;;14.54;100.00
39793;BME280;26080;42.264;24.536;2022-09-12T04:00:30;98853.47;;;14.38;100.00
39793;BME280;26080;42.264;24.536;2022-09-12T04:02:56;98859.31;;;14.31;100.00
39793;BME280;26080;42.264;24.536;2022-09-12T04:05:22;98871.84;;;14.40;100.00
39793;BME280;26080;42.264;24.536;2022-09-12T04:07:48;98883.00;;;14.43;100.00
39793;BME280;26080;42.264;24.536;2022-09-12T04:10:14;98882.91;;;14.45;100.00
39793;BME280;26080;42.264;24.536;2022-09-12T04:12:39;98885.56;;;14.45;100.00
39793;BME280;26080;42.264;24.536;2022-09-12T04:15:05;98889.22;;;14.42;100.00
39793;BME280;26080;42.264;24.536;2022-09-12T04:17:33;98882.16;;;14.43;100.00
39793;BME280;26080;42.264;24.536;2022-09-12T04:19:59;98900.31;;;14.47;100.00
39793;BME280;26080;42.264;24.536;2022-09-12T04:22:24;98895.16;;;14.46;100.00
39793;BME280;26080;42.264;24.536;2022-09-12T04:24:50;98901.03;;;14.49;100.00
39793;BME280;26080;42.264;24.536;2022-09-12T04:27:15;98902.72;;;14.50;100.00
39793;BME280;26080;42.264;24.536;2022-09-12T04:29:41;98883.22;;;14.40;100.00
39793;BME280;26080;42.264;24.536;2022-09-12T04:32:06;98909.25;;;14.58;100.00
39793;BME280;26080;42.264;24.536;2022-09-12T04:34:31;98879.53;;;14.43;100.00
39793;BME280;26080;42.264;24.536;2022-09-12T04:36:57;98904.31;;;14.53;100.00
39793;BME280;26080;42.264;24.536;2022-09-12T04:39:23;98923.06;;;14.74;100.00
39793;BME280;26080;42.264;24.536;2022-09-12T04:41:48;98903.97;;;14.70;100.00
39793;BME280;26080;42.264;24.536;2022-09-12T04:44:14;98910.19;;;14.82;100.00
39793;BME280;26080;42.264;24.536;2022-09-12T04:46:42;98921.94;;;15.02;100.00
39793;BME280;26080;42.264;24.536;2022-09-12T04:49:09;98930.78;;;15.14;100.00
39793;BME280;26080;42.264;24.536;2022-09-12T04:51:37;98924.72;;;15.24;100.00
39793;BME280;26080;42.264;24.536;2022-09-12T04:54:06;98940.94;;;15.31;100.00
39793;BME280;26080;42.264;24.536;2022-09-12T04:56:32;98925.06;;;15.44;100.00
39793;BME280;26080;42.264;24.536;2022-09-12T04:58:59;98932.19;;;15.54;100.00
39793;BME280;26080;42.264;24.536;2022-09-12T05:01:26;98913.84;;;15.53;100.00
39793;BME280;26080;42.264;24.536;2022-09-12T05:03:53;98937.00;;;15.73;100.00
39793;BME280;26080;42.264;24.536;2022-09-12T05:06:36;98946.03;;;15.82;100.00
39793;BME280;26080;42.264;24.536;2022-09-12T05:09:04;98950.00;;;15.87;100.00
39793;BME280;26080;42.264;24.536;2022-09-12T05:11:32;98943.16;;;15.85;100.00
39793;BME280;26080;42.264;24.536;2022-09-12T05:13:58;98937.38;;;15.80;100.00
39793;BME280;26080;42.264;24.536;2022-09-12T05:16:24;98942.91;;;15.88;100.00
39793;BME280;26080;42.264;24.536;2022-09-12T05:18:50;98937.63;;;15.88;100.00
39793;BME280;26080;42.264;24.536;2022-09-12T05:21:18;98938.88;;;15.95;100.00
39793;BME280;26080;42.264;24.536;2022-09-12T05:23:44;98933.47;;;15.96;100.00
39793;BME280;26080;42.264;24.536;2022-09-12T05:26:13;98934.94;;;16.00;100.00
39793;BME280;26080;42.264;24.536;2022-09-12T05:28:38;98933.84;;;16.03;100.00
39793;BME280;26080;42.264;24.536;2022-09-12T05:31:18;98934.84;;;16.13;100.00
39793;BME280;26080;42.264;24.536;2022-09-12T05:33:46;98944.25;;;16.17;100.00
39793;BME280;26080;42.264;24.536;2022-09-12T05:36:14;98910.59;;;16.08;100.00
39793;BME280;26080;42.264;24.536;2022-09-12T05:38:41;98947.59;;;16.30;100.00
39793;BME280;26080;42.264;24.536;2022-09-12T05:41:09;98942.59;;;16.39;100.00
39793;BME280;26080;42.264;24.536;2022-09-12T05:43:37;98941.91;;;16.48;100.00
39793;BME280;26080;42.264;24.536;2022-09-12T05:46:14;98944.56;;;16.59;100.00
39793;BME280;26080;42.264;24.536;2022-09-12T05:48:41;98943.09;;;16.66;100.00
39793;BME280;26080;42.264;24.536;2022-09-12T05:51:09;98950.34;;;16.75;100.00
39793;BME280;26080;42.264;24.536;2022-09-12T05:53:35;98949.88;;;16.81;100.00
39793;BME280;26080;42.264;24.536;2022-09-12T05:56:16;98937.84;;;16.88;100.00
39793;BME280;26080;42.264;24.536;2022-09-12T05:58:45;98940.84;;;16.95;100.00
39793;BME280;26080;42.264;24.536;2022-09-12T06:01:13;98933.28;;;17.02;100.00
39793;BME280;26080;42.264;24.536;2022-09-12T06:03:41;98927.47;;;17.08;100.00
39793;BME280;26080;42.264;24.536;2022-09-12T06:06:07;98916.19;;;17.06;100.00
39793;BME280;26080;42.264;24.536;2022-09-12T06:08:33;98940.69;;;17.19;100.00
39793;BME280;26080;42.264;24.536;2022-09-12T06:11:04;98939.47;;;17.23;100.00
39793;BME280;26080;42.264;24.536;2022-09-12T06:13:31;98950.56;;;17.28;100.00
39793;BME280;26080;42.264;24.536;2022-09-12T06:16:14;98949.34;;;17.32;100.00
39793;BME280;26080;42.264;24.536;2022-09-12T06:18:40;98939.09;;;17.39;100.00
39793;BME280;26080;42.264;24.536;2022-09-12T06:21:09;98945.44;;;17.47;100.00
39793;BME280;26080;42.264;24.536;2022-09-12T06:23:35;98944.59;;;17.58;100.00
39793;BME280;26080;42.264;24.536;2022-09-12T06:26:01;98948.53;;;17.64;100.00
39793;BME280;26080;42.264;24.536;2022-09-12T06:28:28;98921.00;;;17.55;100.00
39793;BME280;26080;42.264;24.536;2022-09-12T06:31:03;98955.00;;;17.82;100.00
39793;BME280;26080;42.264;24.536;2022-09-12T06:33:30;98934.75;;;17.81;100.00
39793;BME280;26080;42.264;24.536;2022-09-12T06:38:33;98949.94;;;18.11;100.00
39793;BME280;26080;42.264;24.536;2022-09-12T06:41:01;98945.78;;;18.18;100.00
39793;BME280;26080;42.264;24.536;2022-09-12T06:43:27;98945.59;;;18.31;100.00
39793;BME280;26080;42.264;24.536;2022-09-12T06:45:53;98917.41;;;18.30;100.00
39793;BME280;26080;42.264;24.536;2022-09-12T06:48:19;98941.84;;;18.54;100.00
39793;BME280;26080;42.264;24.536;2022-09-12T06:50:57;98948.81;;;18.55;100.00
39793;BME280;26080;42.264;24.536;2022-09-12T06:53:24;98947.81;;;18.77;100.00
39793;BME280;26080;42.264;24.536;2022-09-12T06:56:00;98958.22;;;18.90;100.00
39793;BME280;26080;42.264;24.536;2022-09-12T06:58:27;98953.38;;;18.95;100.00
39793;BME280;26080;42.264;24.536;2022-09-12T07:01:00;98936.41;;;18.86;100.00
39793;BME280;26080;42.264;24.536;2022-09-12T07:03:27;98951.28;;;18.99;100.00
39793;BME280;26080;42.264;24.536;2022-09-12T07:05:52;98948.94;;;19.05;100.00
39793;BME280;26080;42.264;24.536;2022-09-12T07:08:18;98942.94;;;19.13;100.00
39793;BME280;26080;42.264;24.536;2022-09-12T07:10:43;98936.38;;;19.17;100.00
39793;BME280;26080;42.264;24.536;2022-09-12T07:13:09;98910.81;;;19.06;100.00
39793;BME280;26080;42.264;24.536;2022-09-12T07:15:35;98942.41;;;19.29;100.00
39793;BME280;26080;42.264;24.536;2022-09-12T07:18:01;98946.94;;;19.38;100.00
39793;BME280;26080;42.264;24.536;2022-09-12T07:20:26;98951.69;;;19.44;100.00
39793;BME280;26080;42.264;24.536;2022-09-12T07:22:52;98946.66;;;19.50;100.00
39793;BME280;26080;42.264;24.536;2022-09-12T07:25:17;98956.63;;;19.58;100.00
39793;BME280;26080;42.264;24.536;2022-09-12T07:27:43;98960.69;;;19.62;100.00
39793;BME280;26080;42.264;24.536;2022-09-12T07:30:09;98953.44;;;19.64;100.00
39793;BME280;26080;42.264;24.536;2022-09-12T07:32:34;98941.94;;;19.73;100.00
39793;BME280;26080;42.264;24.536;2022-09-12T07:35:00;98949.09;;;19.82;100.00
39793;BME280;26080;42.264;24.536;2022-09-12T07:37:29;98951.91;;;19.91;100.00
39793;BME280;26080;42.264;24.536;2022-09-12T07:39:55;98945.91;;;19.89;100.00
39793;BME280;26080;42.264;24.536;2022-09-12T07:42:21;98956.25;;;19.92;100.00
39793;BME280;26080;42.264;24.536;2022-09-12T07:44:46;98958.63;;;20.04;100.00
39793;BME280;26080;42.264;24.536;2022-09-12T07:47:12;98962.66;;;20.08;100.00
39793;BME280;26080;42.264;24.536;2022-09-12T07:49:37;98938.59;;;20.00;100.00
39793;BME280;26080;42.264;24.536;2022-09-12T07:52:03;98948.94;;;20.13;100.00
39793;BME280;26080;42.264;24.536;2022-09-12T07:54:28;98950.91;;;20.21;100.00
39793;BME280;26080;42.264;24.536;2022-09-12T07:56:54;98955.50;;;20.28;100.00
39793;BME280;26080;42.264;24.536;2022-09-12T07:59:19;98944.44;;;20.33;100.00
39793;BME280;26080;42.264;24.536;2022-09-12T08:01:45;98948.66;;;20.45;100.00
39793;BME280;26080;42.264;24.536;2022-09-12T08:04:10;98952.84;;;20.57;100.00
39793;BME280;26080;42.264;24.536;2022-09-12T08:06:36;98958.09;;;20.67;100.00
39793;BME280;26080;42.264;24.536;2022-09-12T08:09:03;98951.69;;;20.60;100.00
39793;BME280;26080;42.264;24.536;2022-09-12T08:11:28;98946.63;;;20.66;100.00
39793;BME280;26080;42.264;24.536;2022-09-12T08:13:55;98947.19;;;20.70;100.00
39793;BME280;26080;42.264;24.536;2022-09-12T08:16:28;98943.25;;;20.74;100.00
39793;BME280;26080;42.264;24.536;2022-09-12T08:18:54;98950.09;;;20.77;100.00
39793;BME280;26080;42.264;24.536;2022-09-12T08:21:22;98938.16;;;20.81;100.00
39793;BME280;26080;42.264;24.536;2022-09-12T08:23:53;98933.34;;;20.94;100.00
39793;BME280;26080;42.264;24.536;2022-09-12T08:26:19;98912.06;;;20.94;100.00
39793;BME280;26080;42.264;24.536;2022-09-12T08:28:44;98933.97;;;21.15;100.00
39793;BME280;26080;42.264;24.536;2022-09-12T08:31:12;98929.00;;;21.30;96.43
39793;BME280;26080;42.264;24.536;2022-09-12T08:33:38;98912.03;;;21.31;98.29
39793;BME280;26080;42.264;24.536;2022-09-12T08:36:10;98917.84;;;21.44;97.04
39793;BME280;26080;42.264;24.536;2022-09-12T08:38:37;98917.84;;;21.44;95.24
39793;BME280;26080;42.264;24.536;2022-09-12T08:41:44;98919.03;;;21.50;96.86
39793;BME280;26080;42.264;24.536;2022-09-12T08:49:29;98906.72;;;21.84;90.96
39793;BME280;26080;42.264;24.536;2022-09-12T08:52:03;98904.13;;;21.93;88.78
39793;BME280;26080;42.264;24.536;2022-09-12T08:54:30;98897.66;;;21.95;85.53
39793;BME280;26080;42.264;24.536;2022-09-12T08:57:01;98898.19;;;21.99;82.39
39793;BME280;26080;42.264;24.536;2022-09-12T08:59:34;98904.03;;;22.02;81.61
39793;BME280;26080;42.264;24.536;2022-09-12T09:02:01;98889.66;;;22.13;81.61
39793;BME280;26080;42.264;24.536;2022-09-12T09:04:49;98893.16;;;22.13;79.51
39793;BME280;26080;42.264;24.536;2022-09-12T09:18:03;98895.41;;;22.26;74.44
39793;BME280;26080;42.264;24.536;2022-09-12T09:23:38;98893.50;;;22.36;75.02
39793;BME280;26080;42.264;24.536;2022-09-12T09:26:12;98892.69;;;22.44;73.57
39793;BME280;26080;42.264;24.536;2022-09-12T09:29:18;98884.59;;;22.54;74.63
39793;BME280;26080;42.264;24.536;2022-09-12T09:31:50;98889.50;;;22.66;75.51
39793;BME280;26080;42.264;24.536;2022-09-12T09:34:22;98868.47;;;22.71;70.68
39793;BME280;26080;42.264;24.536;2022-09-12T09:42:36;98885.53;;;22.79;71.17
39793;BME280;26080;42.264;24.536;2022-09-12T09:44:59;98888.25;;;22.87;70.89
39793;BME280;26080;42.264;24.536;2022-09-12T09:47:27;98862.94;;;22.91;67.57
39793;BME280;26080;42.264;24.536;2022-09-12T09:49:52;98853.31;;;22.72;70.09
39793;BME280;26080;42.264;24.536;2022-09-12T09:52:23;98889.88;;;22.80;68.24
39793;BME280;26080;42.264;24.536;2022-09-12T09:54:57;98875.53;;;22.81;69.25
39793;BME280;26080;42.264;24.536;2022-09-12T10:00:27;98880.94;;;22.89;68.56
39793;BME280;26080;42.264;24.536;2022-09-12T10:03:37;98863.50;;;23.11;70.18
39793;BME280;26080;42.264;24.536;2022-09-12T10:08:48;98865.03;;;23.21;68.84
39793;BME280;26080;42.264;24.536;2022-09-12T10:16:24;98884.69;;;23.12;69.29
39793;BME280;26080;42.264;24.536;2022-09-12T10:18:53;98883.06;;;23.19;69.37
39793;BME280;26080;42.264;24.536;2022-09-12T10:21:38;98881.38;;;23.18;70.26
39793;BME280;26080;42.264;24.536;2022-09-12T10:24:27;98863.69;;;23.17;69.61
39793;BME280;26080;42.264;24.536;2022-09-12T10:29:51;98863.19;;;23.30;69.23
39793;BME280;26080;42.264;24.536;2022-09-12T10:32:28;98865.72;;;23.40;66.70
39793;BME280;26080;42.264;24.536;2022-09-12T10:35:16;98878.09;;;23.57;65.54
39793;BME280;26080;42.264;24.536;2022-09-12T10:38:04;98871.81;;;23.66;64.59
39793;BME280;26080;42.264;24.536;2022-09-12T10:40:37;98873.81;;;23.64;64.69
39793;BME280;26080;42.264;24.536;2022-09-12T10:43:16;98868.31;;;23.74;63.22
39793;BME280;26080;42.264;24.536;2022-09-12T10:45:42;98864.94;;;23.80;64.18
39793;BME280;26080;42.264;24.536;2022-09-12T10:50:48;98867.28;;;23.91;64.35
39793;BME280;26080;42.264;24.536;2022-09-12T10:53:38;98859.94;;;23.60;61.60
39793;BME280;26080;42.264;24.536;2022-09-12T11:01:42;98867.94;;;23.69;62.56
39793;BME280;26080;42.264;24.536;2022-09-12T11:07:32;98876.47;;;23.80;61.32
39793;BME280;26080;42.264;24.536;2022-09-12T11:15:33;98874.72;;;23.22;67.04
39793;BME280;26080;42.264;24.536;2022-09-12T11:18:24;98862.00;;;23.16;66.21
39793;BME280;26080;42.264;24.536;2022-09-12T11:26:37;98850.94;;;23.61;65.44
39793;BME280;26080;42.264;24.536;2022-09-12T11:31:52;98845.72;;;23.68;63.49
39793;BME280;26080;42.264;24.536;2022-09-12T11:42:46;98837.59;;;24.58;61.00
39793;BME280;26080;42.264;24.536;2022-09-12T11:45:46;98837.56;;;24.66;58.84
39793;BME280;26080;42.264;24.536;2022-09-12T11:48:40;98829.50;;;24.74;60.75
39793;BME280;26080;42.264;24.536;2022-09-12T11:51:17;98799.22;;;24.73;59.59
39793;BME280;26080;42.264;24.536;2022-09-12T11:53:44;98825.38;;;25.02;58.09
39793;BME280;26080;42.264;24.536;2022-09-12T11:56:16;98832.44;;;25.26;58.15
39793;BME280;26080;42.264;24.536;2022-09-12T11:58:48;98829.22;;;25.31;54.15
39793;BME280;26080;42.264;24.536;2022-09-12T12:01:19;98828.84;;;25.34;55.25
39793;BME280;26080;42.264;24.536;2022-09-12T12:03:46;98817.31;;;25.56;54.63
39793;BME280;26080;42.264;24.536;2022-09-12T12:06:15;98828.03;;;25.56;55.08
39793;BME280;26080;42.264;24.536;2022-09-12T12:08:44;98822.38;;;25.51;54.68
39793;BME280;26080;42.264;24.536;2022-09-12T12:11:13;98822.66;;;25.56;54.66
39793;BME280;26080;42.264;24.536;2022-09-12T12:14:18;98793.81;;;25.58;53.67
39793;BME280;26080;42.264;24.536;2022-09-12T12:16:45;98809.69;;;25.45;53.36
39793;BME280;26080;42.264;24.536;2022-09-12T12:21:48;98803.34;;;25.15;53.89
39793;BME280;26080;42.264;24.536;2022-09-12T12:24:20;98813.78;;;24.71;53.62
39793;BME280;26080;42.264;24.536;2022-09-12T12:36:57;98821.00;;;23.82;57.60
39793;BME280;26080;42.264;24.536;2022-09-12T12:41:56;98821.34;;;23.87;58.53
39793;BME280;26080;42.264;24.536;2022-09-12T12:47:16;98818.13;;;23.51;60.56
39793;BME280;26080;42.264;24.536;2022-09-12T12:49:49;98820.97;;;23.42;60.78
39793;BME280;26080;42.264;24.536;2022-09-12T12:52:16;98813.47;;;23.45;58.54
39793;BME280;26080;42.264;24.536;2022-09-12T13:00:02;98808.59;;;24.14;59.65
39793;BME280;26080;42.264;24.536;2022-09-12T13:04:58;98800.53;;;24.77;56.42
39793;BME280;26080;42.264;24.536;2022-09-12T13:07:39;98801.03;;;24.81;56.36
39793;BME280;26080;42.264;24.536;2022-09-12T13:10:06;98817.03;;;24.58;58.20
39793;BME280;26080;42.264;24.536;2022-09-12T13:12:42;98823.47;;;24.08;56.58
39793;BME280;26080;42.264;24.536;2022-09-12T13:18:07;98839.22;;;23.62;59.91
39793;BME280;26080;42.264;24.536;2022-09-12T13:20:52;98825.97;;;23.37;60.68
39793;BME280;26080;42.264;24.536;2022-09-12T13:23:25;98826.78;;;23.29;61.09
39793;BME280;26080;42.264;24.536;2022-09-12T13:25:55;98825.31;;;23.43;63.49
39793;BME280;26080;42.264;24.536;2022-09-12T13:28:22;98815.63;;;23.33;62.67
39793;BME280;26080;42.264;24.536;2022-09-12T13:44:24;98806.91;;;24.21;56.85
39793;BME280;26080;42.264;24.536;2022-09-12T13:46:51;98817.94;;;24.10;57.93
39793;BME280;26080;42.264;24.536;2022-09-12T13:49:32;98808.63;;;23.89;59.42
39793;BME280;26080;42.264;24.536;2022-09-12T13:52:05;98817.66;;;23.88;59.27
39793;BME280;26080;42.264;24.536;2022-09-12T13:54:31;98817.16;;;23.77;61.33
39793;BME280;26080;42.264;24.536;2022-09-12T13:56:58;98813.84;;;23.58;60.47
39793;BME280;26080;42.264;24.536;2022-09-12T13:59:24;98836.38;;;23.80;59.26
39793;BME280;26080;42.264;24.536;2022-09-12T14:01:49;98827.03;;;23.68;59.12
39793;BME280;26080;42.264;24.536;2022-09-12T14:04:24;98827.69;;;23.62;59.79
39793;BME280;26080;42.264;24.536;2022-09-12T14:07:18;98825.66;;;23.48;60.41
39793;BME280;26080;42.264;24.536;2022-09-12T14:09:52;98832.03;;;23.63;61.50
39793;BME280;26080;42.264;24.536;2022-09-12T14:14:47;98835.22;;;23.58;60.84
39793;BME280;26080;42.264;24.536;2022-09-12T14:17:22;98834.31;;;23.42;60.91
39793;BME280;26080;42.264;24.536;2022-09-12T14:19:49;98823.81;;;23.32;61.18
39793;BME280;26080;42.264;24.536;2022-09-12T14:22:16;98826.31;;;23.33;64.01
39793;BME280;26080;42.264;24.536;2022-09-12T14:24:46;98835.31;;;23.41;63.04
39793;BME280;26080;42.264;24.536;2022-09-12T14:27:16;98826.63;;;23.22;62.59
39793;BME280;26080;42.264;24.536;2022-09-12T14:29:43;98825.59;;;23.07;62.45
39793;BME280;26080;42.264;24.536;2022-09-12T14:32:20;98832.94;;;23.05;62.17
39793;BME280;26080;42.264;24.536;2022-09-12T14:37:37;98838.66;;;23.18;61.86
39793;BME280;26080;42.264;24.536;2022-09-12T14:40:15;98806.91;;;23.15;62.23
39793;BME280;26080;42.264;24.536;2022-09-12T14:42:43;98815.09;;;23.05;61.21
39793;BME280;26080;42.264;24.536;2022-09-12T14:45:16;98832.28;;;23.11;62.19
39793;BME280;26080;42.264;24.536;2022-09-12T14:47:42;98837.63;;;23.11;62.19
39793;BME280;26080;42.264;24.536;2022-09-12T14:50:20;98844.13;;;23.09;62.20
39793;BME280;26080;42.264;24.536;2022-09-12T14:53:46;98818.53;;;22.90;62.62
39793;BME280;26080;42.264;24.536;2022-09-12T14:55:51;98835.91;;;22.94;63.05
39793;BME280;26080;42.264;24.536;2022-09-12T15:03:27;98841.94;;;22.62;64.06
39793;BME280;26080;42.264;24.536;2022-09-12T15:05:53;98846.72;;;22.58;64.63
39793;BME280;26080;42.264;24.536;2022-09-12T15:08:19;98832.00;;;22.46;64.76
39793;BME280;26080;42.264;24.536;2022-09-12T15:10:45;98825.97;;;22.36;66.39
39793;BME280;26080;42.264;24.536;2022-09-12T15:13:12;98837.47;;;22.36;66.03
39793;BME280;26080;42.264;24.536;2022-09-12T15:15:43;98841.44;;;22.32;66.05
39793;BME280;26080;42.264;24.536;2022-09-12T15:18:09;98838.59;;;22.34;66.00
39793;BME280;26080;42.264;24.536;2022-09-12T15:20:36;98816.19;;;22.18;66.51
39793;BME280;26080;42.264;24.536;2022-09-12T15:23:04;98845.94;;;22.32;65.25
39793;BME280;26080;42.264;24.536;2022-09-12T15:25:30;98842.81;;;22.36;66.60
39793;BME280;26080;42.264;24.536;2022-09-12T15:27:55;98840.59;;;22.32;66.36
39793;BME280;26080;42.264;24.536;2022-09-12T15:30:21;98838.09;;;22.30;66.37
39793;BME280;26080;42.264;24.536;2022-09-12T15:32:47;98833.75;;;22.29;65.92
39793;BME280;26080;42.264;24.536;2022-09-12T15:35:21;98834.75;;;22.28;66.41
39793;BME280;26080;42.264;24.536;2022-09-12T15:37:47;98836.94;;;22.33;66.64
39793;BME280;26080;42.264;24.536;2022-09-12T15:40:13;98812.38;;;22.21;66.74
39793;BME280;26080;42.264;24.536;2022-09-12T15:42:38;98823.88;;;22.22;66.17
39793;BME280;26080;42.264;24.536;2022-09-12T15:45:33;98834.22;;;22.25;66.18
39793;BME280;26080;42.264;24.536;2022-09-12T15:47:59;98817.56;;;22.05;67.19
39793;BME280;26080;42.264;24.536;2022-09-12T15:50:26;98807.94;;;21.86;68.40
39793;BME280;26080;42.264;24.536;2022-09-12T15:52:52;98823.31;;;21.92;68.86